KCGZ

Casa Grande Municipal Airport

Casa Grande, Arizona, USA
METAR KCGZ 170356Z AUTO 06015G19KT 10SM CLR 16/07 A3007 RMK AO2 SLP179 T01560067 $
Observed Flight Rules
Oct-17 @ 03:56 UTC (2 hours ago) Visual Flight Rules
Wind Visibility Clouds
60° at 15 knots
 Gusting to 19 knots
10 miles
  • Clear skies
Temperatures Readings
Current 16°C / 61°F
Dewpoint 7°C / 45°F
Humidity 55%
Altimeter 30.07" Hg
Pressure 1017.9 hPa
Elevation 446
METAR KCGZ 170356Z AUTO 06015G19KT 10SM CLR 16/07 A3007 RMK AO2 SLP179 T01560067 $
Observed Flight Rules
Oct-17 @ 03:56 UTC
(2 hours ago)
VFR
Wind Visibility
60° at 15 knots
 Gusting to 19 knots
10 miles
Clouds
  • Clear skies
Temperature Dewpoint
16°C / 61°F 7°C / 45°F
Humidity Altimeter Pressure
55% 30.07" Hg 1017.9 hPa